RYR19NG EPMO-LIMC
Flight info
| Callsign | RYR19NG |
|---|---|
| Flight time | N/A |
| Altitude | 36000 |
| Route | EVINA DCT NAVUR N744 TUSIN DCT NAVTI DCT LIMRA DCT OBEDI DCT DETSA/N0439F370 DCT BAKOR DCT NAXAV DCT RENTA DCT ATPED DCT LUSIL DCT EVRIP |
| Aircraft | B738/M-SDE2E3FGHIRWXY/LB1 |
Departure
| Time | 2026-04-20 15:03 |
|---|---|
| Airport | Warsaw Modlin Airport (EPMO) |
Arrival
| Time | N/A |
|---|---|
| Airport | Milan Malpensa International Airport (LIMC) |
| Time | Latitude | Longitude | Altitude | Speed | Heading |
|---|---|---|---|---|---|
| 2026-04-20 14:31 | 52.44747 | 20.65260 | 333 ft | 0 kts | 206° |
| 2026-04-20 14:55 | 52.44761 | 20.65272 | 332 ft | 2 kts | 206° |
| 2026-04-20 14:55 | 52.44772 | 20.65280 | 334 ft | 0 kts | 213° |
| 2026-04-20 14:56 | 52.44789 | 20.65305 | 333 ft | 4 kts | 236° |
| 2026-04-20 14:56 | 52.44799 | 20.65342 | 333 ft | 3 kts | 261° |
| 2026-04-20 14:56 | 52.44799 | 20.65346 | 333 ft | 1 kts | 261° |
| 2026-04-20 14:59 | 52.44798 | 20.65330 | 332 ft | 6 kts | 261° |
| 2026-04-20 14:59 | 52.44782 | 20.65160 | 337 ft | 24 kts | 261° |
| 2026-04-20 14:59 | 52.44753 | 20.64851 | 337 ft | 29 kts | 262° |
| 2026-04-20 14:59 | 52.44722 | 20.64528 | 337 ft | 27 kts | 261° |
| 2026-04-20 15:00 | 52.44694 | 20.64233 | 337 ft | 25 kts | 261° |
| 2026-04-20 15:00 | 52.44668 | 20.63957 | 335 ft | 24 kts | 261° |
| 2026-04-20 15:00 | 52.44643 | 20.63698 | 337 ft | 23 kts | 261° |
| 2026-04-20 15:00 | 52.44656 | 20.63458 | 335 ft | 19 kts | 331° |
| 2026-04-20 15:01 | 52.44783 | 20.63419 | 332 ft | 18 kts | 351° |
| 2026-04-20 15:01 | 52.44919 | 20.63382 | 336 ft | 16 kts | 349° |
| 2026-04-20 15:01 | 52.44953 | 20.63411 | 335 ft | 7 kts | 70° |
| 2026-04-20 15:01 | 52.44959 | 20.63458 | 337 ft | 0 kts | 79° |
| 2026-04-20 15:02 | 52.45014 | 20.64028 | 335 ft | 96 kts | 81° |
| 2026-04-20 15:02 | 52.45155 | 20.65557 | 393 ft | 169 kts | 81° |
| 2026-04-20 15:03 | 52.45307 | 20.67581 | 1299 ft | 187 kts | 81° |
| 2026-04-20 15:03 | 52.45532 | 20.69696 | 2406 ft | 190 kts | 78° |
| 2026-04-20 15:03 | 52.45777 | 20.71858 | 3226 ft | 196 kts | 78° |
| 2026-04-20 15:03 | 52.45704 | 20.74115 | 3872 ft | 209 kts | 109° |
| 2026-04-20 15:04 | 52.44809 | 20.76065 | 4589 ft | 225 kts | 139° |
| 2026-04-20 15:04 | 52.43280 | 20.77114 | 5013 ft | 259 kts | 170° |
| 2026-04-20 15:04 | 52.41425 | 20.76885 | 5779 ft | 274 kts | 188° |
| 2026-04-20 15:04 | 52.39556 | 20.76143 | 6702 ft | 278 kts | 192° |
| 2026-04-20 15:05 | 52.37687 | 20.75312 | 7584 ft | 282 kts | 192° |
| 2026-04-20 15:05 | 52.35777 | 20.74454 | 8441 ft | 286 kts | 193° |
| 2026-04-20 15:05 | 52.33851 | 20.73598 | 9323 ft | 289 kts | 192° |
| 2026-04-20 15:05 | 52.31890 | 20.72741 | 10156 ft | 293 kts | 192° |
| 2026-04-20 15:06 | 52.29883 | 20.71882 | 10709 ft | 307 kts | 192° |
| 2026-04-20 15:06 | 52.27764 | 20.71021 | 11203 ft | 321 kts | 192° |
| 2026-04-20 15:06 | 52.25564 | 20.70144 | 11954 ft | 326 kts | 192° |
| 2026-04-20 15:06 | 52.23341 | 20.69263 | 12668 ft | 333 kts | 193° |
| 2026-04-20 15:07 | 52.21075 | 20.68361 | 13480 ft | 337 kts | 193° |
| 2026-04-20 15:07 | 52.18797 | 20.67452 | 14305 ft | 339 kts | 193° |
| 2026-04-20 15:07 | 52.16482 | 20.66528 | 14921 ft | 346 kts | 194° |
| 2026-04-20 15:07 | 52.14145 | 20.65596 | 15708 ft | 347 kts | 194° |
| 2026-04-20 15:08 | 52.11788 | 20.64655 | 16396 ft | 352 kts | 194° |
| 2026-04-20 15:08 | 52.09387 | 20.63697 | 17048 ft | 357 kts | 194° |
| 2026-04-20 15:08 | 52.06969 | 20.62734 | 17820 ft | 359 kts | 195° |
| 2026-04-20 15:08 | 52.04541 | 20.61767 | 18481 ft | 364 kts | 195° |
| 2026-04-20 15:09 | 52.02063 | 20.60782 | 19096 ft | 366 kts | 195° |
| 2026-04-20 15:09 | 51.99590 | 20.59799 | 19747 ft | 368 kts | 195° |
| 2026-04-20 15:09 | 51.97085 | 20.58805 | 20347 ft | 372 kts | 195° |
| 2026-04-20 15:09 | 51.94557 | 20.57804 | 20961 ft | 375 kts | 195° |
| 2026-04-20 15:10 | 51.92012 | 20.56796 | 21583 ft | 378 kts | 195° |
| 2026-04-20 15:10 | 51.89450 | 20.55783 | 22176 ft | 381 kts | 195° |
| 2026-04-20 15:10 | 51.86862 | 20.54762 | 22734 ft | 385 kts | 195° |
| 2026-04-20 15:10 | 51.84249 | 20.53731 | 23316 ft | 388 kts | 195° |
| 2026-04-20 15:11 | 51.81628 | 20.52699 | 23836 ft | 391 kts | 195° |
| 2026-04-20 15:11 | 51.78966 | 20.51651 | 24314 ft | 393 kts | 194° |
| 2026-04-20 15:11 | 51.76301 | 20.50604 | 24801 ft | 395 kts | 194° |
| 2026-04-20 15:11 | 51.73618 | 20.49551 | 25265 ft | 398 kts | 194° |
| 2026-04-20 15:12 | 51.70923 | 20.48495 | 25748 ft | 400 kts | 194° |
| 2026-04-20 15:12 | 51.68207 | 20.47432 | 26227 ft | 402 kts | 194° |
| 2026-04-20 15:12 | 51.65489 | 20.46369 | 26703 ft | 404 kts | 194° |
| 2026-04-20 15:12 | 51.62756 | 20.45302 | 27186 ft | 405 kts | 194° |
| 2026-04-20 15:13 | 51.60010 | 20.44231 | 27619 ft | 408 kts | 194° |
| 2026-04-20 15:13 | 51.57240 | 20.43152 | 28060 ft | 409 kts | 194° |
| 2026-04-20 15:13 | 51.54480 | 20.42078 | 28687 ft | 406 kts | 194° |
| 2026-04-20 15:13 | 51.51755 | 20.41019 | 29362 ft | 402 kts | 194° |
| 2026-04-20 15:14 | 51.49041 | 20.39965 | 29977 ft | 400 kts | 194° |
| 2026-04-20 15:14 | 51.46341 | 20.38918 | 30409 ft | 399 kts | 194° |
| 2026-04-20 15:14 | 51.43633 | 20.37869 | 30750 ft | 401 kts | 194° |
| 2026-04-20 15:14 | 51.40929 | 20.36778 | 31104 ft | 401 kts | 198° |
| 2026-04-20 15:15 | 51.38341 | 20.35113 | 31467 ft | 401 kts | 208° |
| 2026-04-20 15:15 | 51.35974 | 20.32785 | 31839 ft | 400 kts | 217° |
| 2026-04-20 15:15 | 51.33747 | 20.30101 | 32222 ft | 400 kts | 218° |
| 2026-04-20 15:15 | 51.31546 | 20.27392 | 32578 ft | 400 kts | 218° |
| 2026-04-20 15:16 | 51.29342 | 20.24679 | 32925 ft | 400 kts | 218° |
| 2026-04-20 15:16 | 51.27132 | 20.21978 | 33289 ft | 400 kts | 218° |
| 2026-04-20 15:16 | 51.24917 | 20.19293 | 33625 ft | 400 kts | 218° |
| 2026-04-20 15:16 | 51.22695 | 20.16615 | 33952 ft | 401 kts | 218° |
| 2026-04-20 15:17 | 51.20467 | 20.13941 | 34228 ft | 401 kts | 218° |
| 2026-04-20 15:17 | 51.18240 | 20.11275 | 34500 ft | 401 kts | 218° |
| 2026-04-20 15:17 | 51.16037 | 20.08642 | 34736 ft | 401 kts | 218° |
| 2026-04-20 15:17 | 51.13775 | 20.05941 | 34965 ft | 402 kts | 218° |
| 2026-04-20 15:18 | 51.11564 | 20.03304 | 35212 ft | 402 kts | 218° |
| 2026-04-20 15:18 | 51.09293 | 20.00599 | 35466 ft | 402 kts | 218° |
| 2026-04-20 15:18 | 51.07083 | 19.97969 | 35684 ft | 403 kts | 218° |
| 2026-04-20 15:18 | 51.04806 | 19.95261 | 35896 ft | 403 kts | 218° |
| 2026-04-20 15:19 | 51.02587 | 19.92628 | 36027 ft | 406 kts | 218° |
| 2026-04-20 15:19 | 50.97996 | 19.87195 | 36029 ft | 416 kts | 218° |
| 2026-04-20 15:20 | 50.93298 | 19.81654 | 36030 ft | 426 kts | 218° |
| 2026-04-20 15:20 | 50.88488 | 19.75993 | 36032 ft | 436 kts | 218° |
| 2026-04-20 15:21 | 50.83557 | 19.70204 | 36033 ft | 446 kts | 218° |
| 2026-04-20 15:21 | 50.78514 | 19.64298 | 36019 ft | 455 kts | 218° |
| 2026-04-20 15:22 | 50.73386 | 19.58311 | 36026 ft | 463 kts | 218° |
| 2026-04-20 15:22 | 50.68166 | 19.52232 | 36011 ft | 469 kts | 218° |
| 2026-04-20 15:23 | 50.62898 | 19.46116 | 36010 ft | 471 kts | 218° |
| 2026-04-20 15:23 | 50.57612 | 19.39996 | 36009 ft | 472 kts | 218° |
| 2026-04-20 15:24 | 50.52323 | 19.33891 | 36015 ft | 472 kts | 218° |
| 2026-04-20 15:24 | 50.47087 | 19.27862 | 36014 ft | 471 kts | 218° |
| 2026-04-20 15:25 | 50.41758 | 19.21744 | 36018 ft | 470 kts | 218° |
| 2026-04-20 15:25 | 50.36490 | 19.15714 | 36014 ft | 468 kts | 218° |
| 2026-04-20 15:26 | 50.31229 | 19.09707 | 36013 ft | 468 kts | 218° |
| 2026-04-20 15:26 | 50.25977 | 19.03728 | 36007 ft | 467 kts | 218° |
| 2026-04-20 15:27 | 50.20730 | 18.97771 | 36005 ft | 466 kts | 218° |
| 2026-04-20 15:27 | 50.15485 | 18.91833 | 35992 ft | 466 kts | 218° |
| 2026-04-20 15:28 | 50.11124 | 18.86909 | 35996 ft | 465 kts | 218° |
| 2026-04-20 15:28 | 50.05896 | 18.81018 | 35996 ft | 465 kts | 218° |
| 2026-04-20 15:29 | 49.99793 | 18.74163 | 35996 ft | 465 kts | 218° |
| 2026-04-20 15:29 | 49.95408 | 18.69252 | 35989 ft | 465 kts | 218° |
| 2026-04-20 15:30 | 49.90153 | 18.63377 | 35995 ft | 465 kts | 218° |
| 2026-04-20 15:30 | 49.85093 | 18.57271 | 35993 ft | 462 kts | 227° |
| 2026-04-20 15:31 | 49.81154 | 18.49516 | 36017 ft | 458 kts | 238° |
| 2026-04-20 15:31 | 49.77606 | 18.41230 | 35999 ft | 458 kts | 238° |
| 2026-04-20 15:32 | 49.74095 | 18.33089 | 35991 ft | 459 kts | 238° |
| 2026-04-20 15:32 | 49.70525 | 18.24925 | 35991 ft | 458 kts | 238° |
| 2026-04-20 15:33 | 49.66941 | 18.16795 | 35991 ft | 458 kts | 238° |
| 2026-04-20 15:33 | 49.63351 | 18.08683 | 35996 ft | 457 kts | 238° |
| 2026-04-20 15:34 | 49.59760 | 18.00590 | 35985 ft | 457 kts | 238° |
| 2026-04-20 15:34 | 49.56169 | 17.92521 | 35997 ft | 456 kts | 238° |
| 2026-04-20 15:35 | 49.52574 | 17.84464 | 35982 ft | 456 kts | 238° |
| 2026-04-20 15:35 | 49.48977 | 17.76429 | 35989 ft | 456 kts | 238° |
| 2026-04-20 15:36 | 49.45375 | 17.68406 | 35984 ft | 455 kts | 238° |
| 2026-04-20 15:36 | 49.41772 | 17.60408 | 35983 ft | 455 kts | 238° |
| 2026-04-20 15:37 | 49.38166 | 17.52424 | 35981 ft | 455 kts | 238° |
| 2026-04-20 15:37 | 49.34557 | 17.44457 | 35981 ft | 455 kts | 238° |
| 2026-04-20 15:38 | 49.30968 | 17.36559 | 35983 ft | 454 kts | 238° |
| 2026-04-20 15:38 | 49.27353 | 17.28627 | 35978 ft | 455 kts | 238° |
| 2026-04-20 15:39 | 49.23723 | 17.20685 | 35985 ft | 454 kts | 238° |
| 2026-04-20 15:39 | 49.20096 | 17.12774 | 35984 ft | 454 kts | 238° |
| 2026-04-20 15:40 | 49.16468 | 17.04885 | 35990 ft | 454 kts | 238° |
| 2026-04-20 15:40 | 49.12837 | 16.97012 | 35989 ft | 453 kts | 238° |
| 2026-04-20 15:41 | 49.09199 | 16.89146 | 35991 ft | 453 kts | 238° |
| 2026-04-20 15:41 | 49.05570 | 16.81322 | 35990 ft | 452 kts | 238° |
| 2026-04-20 15:42 | 49.01934 | 16.73506 | 35998 ft | 452 kts | 238° |
| 2026-04-20 15:42 | 48.98293 | 16.65701 | 35989 ft | 451 kts | 238° |
| 2026-04-20 15:43 | 48.94654 | 16.57924 | 35990 ft | 451 kts | 238° |
| 2026-04-20 15:43 | 48.91009 | 16.50158 | 35990 ft | 450 kts | 238° |
| 2026-04-20 15:44 | 48.87372 | 16.42428 | 35991 ft | 450 kts | 238° |
| 2026-04-20 15:44 | 48.83738 | 16.34727 | 35988 ft | 449 kts | 238° |
| 2026-04-20 15:45 | 48.80091 | 16.27019 | 35993 ft | 449 kts | 238° |
| 2026-04-20 15:45 | 48.76445 | 16.19334 | 35986 ft | 448 kts | 238° |
| 2026-04-20 15:46 | 48.72803 | 16.11665 | 35998 ft | 448 kts | 238° |
| 2026-04-20 15:46 | 48.69171 | 16.04028 | 35997 ft | 448 kts | 238° |
| 2026-04-20 15:47 | 48.65524 | 15.96376 | 36000 ft | 447 kts | 238° |
| 2026-04-20 15:47 | 48.61883 | 15.88761 | 35995 ft | 447 kts | 238° |
| 2026-04-20 15:48 | 48.58261 | 15.81206 | 35997 ft | 446 kts | 238° |
| 2026-04-20 15:48 | 48.54616 | 15.73625 | 35995 ft | 446 kts | 238° |
| 2026-04-20 15:49 | 48.50966 | 15.66054 | 35990 ft | 446 kts | 238° |
| 2026-04-20 15:49 | 48.47317 | 15.58509 | 35988 ft | 445 kts | 238° |
| 2026-04-20 15:50 | 48.43666 | 15.50978 | 35992 ft | 445 kts | 238° |
| 2026-04-20 15:50 | 48.40021 | 15.43481 | 35991 ft | 444 kts | 238° |
| 2026-04-20 15:51 | 48.36365 | 15.35982 | 36001 ft | 443 kts | 238° |
| 2026-04-20 15:51 | 48.32715 | 15.28515 | 35995 ft | 443 kts | 238° |
| 2026-04-20 15:52 | 48.29060 | 15.21060 | 35992 ft | 443 kts | 238° |
| 2026-04-20 15:52 | 48.25409 | 15.13634 | 35995 ft | 442 kts | 238° |
| 2026-04-20 15:53 | 48.19937 | 15.02540 | 36004 ft | 440 kts | 238° |
| 2026-04-20 15:53 | 48.16288 | 14.95168 | 36012 ft | 440 kts | 239° |
| 2026-04-20 15:54 | 48.12636 | 14.87809 | 36005 ft | 439 kts | 239° |
| 2026-04-20 15:54 | 48.08991 | 14.80483 | 36006 ft | 439 kts | 239° |
| 2026-04-20 15:55 | 48.05353 | 14.73192 | 36009 ft | 438 kts | 239° |
| 2026-04-20 15:55 | 48.01698 | 14.65885 | 36007 ft | 438 kts | 239° |
| 2026-04-20 15:56 | 47.98050 | 14.58611 | 36004 ft | 437 kts | 239° |
| 2026-04-20 15:56 | 47.94407 | 14.51364 | 36014 ft | 437 kts | 239° |
| 2026-04-20 15:57 | 47.90754 | 14.44120 | 36011 ft | 437 kts | 239° |
| 2026-04-20 15:57 | 47.87085 | 14.36940 | 36016 ft | 436 kts | 239° |
| 2026-04-20 15:58 | 47.83394 | 14.29762 | 36003 ft | 435 kts | 239° |
| 2026-04-20 15:58 | 47.79738 | 14.22667 | 36022 ft | 434 kts | 239° |
| 2026-04-20 15:59 | 47.76063 | 14.15543 | 36006 ft | 434 kts | 239° |
| 2026-04-20 15:59 | 47.72387 | 14.08432 | 36024 ft | 433 kts | 239° |
| 2026-04-20 16:00 | 47.68711 | 14.01342 | 36037 ft | 433 kts | 238° |
| 2026-04-20 16:00 | 47.65037 | 13.94271 | 36031 ft | 433 kts | 238° |
| 2026-04-20 16:01 | 47.61346 | 13.87187 | 36036 ft | 434 kts | 238° |
| 2026-04-20 16:01 | 47.57657 | 13.80124 | 36025 ft | 433 kts | 238° |
| 2026-04-20 16:02 | 47.53972 | 13.73091 | 36031 ft | 432 kts | 238° |
| 2026-04-20 16:02 | 47.50283 | 13.66063 | 36031 ft | 432 kts | 238° |
| 2026-04-20 16:03 | 47.46585 | 13.59037 | 36014 ft | 432 kts | 238° |
| 2026-04-20 16:03 | 47.42898 | 13.52050 | 36042 ft | 432 kts | 238° |
| 2026-04-20 16:04 | 47.39198 | 13.45058 | 36029 ft | 432 kts | 238° |
| 2026-04-20 16:04 | 47.35495 | 13.38073 | 36038 ft | 432 kts | 238° |
| 2026-04-20 16:05 | 47.31794 | 13.31075 | 36034 ft | 433 kts | 239° |
| 2026-04-20 16:05 | 47.28247 | 13.23913 | 36031 ft | 432 kts | 240° |
| 2026-04-20 16:06 | 47.24739 | 13.16705 | 36004 ft | 433 kts | 240° |
| 2026-04-20 16:06 | 47.21212 | 13.09527 | 36011 ft | 433 kts | 239° |
| 2026-04-20 16:07 | 47.17667 | 13.02366 | 36014 ft | 433 kts | 239° |
| 2026-04-20 16:07 | 47.14106 | 12.95201 | 35995 ft | 435 kts | 239° |
| 2026-04-20 16:08 | 47.10535 | 12.88039 | 36007 ft | 435 kts | 239° |
| 2026-04-20 16:08 | 47.06955 | 12.80875 | 35987 ft | 436 kts | 239° |
| 2026-04-20 16:09 | 47.03396 | 12.73773 | 35984 ft | 436 kts | 239° |
| 2026-04-20 16:09 | 46.99798 | 12.66609 | 35975 ft | 437 kts | 239° |
| 2026-04-20 16:10 | 46.96184 | 12.59432 | 35949 ft | 438 kts | 238° |
| 2026-04-20 16:10 | 46.92567 | 12.52268 | 35949 ft | 437 kts | 239° |
| 2026-04-20 16:11 | 46.88951 | 12.45126 | 35946 ft | 436 kts | 238° |
| 2026-04-20 16:11 | 46.85338 | 12.38003 | 35946 ft | 436 kts | 238° |
| 2026-04-20 16:12 | 46.81714 | 12.30876 | 35944 ft | 438 kts | 238° |
| 2026-04-20 16:12 | 46.78555 | 12.23370 | 35946 ft | 432 kts | 247° |
| 2026-04-20 16:13 | 46.75870 | 12.15534 | 35928 ft | 432 kts | 248° |
| 2026-04-20 16:13 | 46.73173 | 12.07721 | 35933 ft | 431 kts | 247° |
| 2026-04-20 16:14 | 46.70445 | 11.99926 | 35926 ft | 431 kts | 247° |
| 2026-04-20 16:14 | 46.67712 | 11.92164 | 35906 ft | 431 kts | 247° |
| 2026-04-20 16:15 | 46.64974 | 11.84407 | 35886 ft | 429 kts | 247° |
| 2026-04-20 16:15 | 46.62250 | 11.76710 | 35889 ft | 428 kts | 247° |
| 2026-04-20 16:16 | 46.59515 | 11.68997 | 35863 ft | 429 kts | 247° |
| 2026-04-20 16:16 | 46.57249 | 11.62610 | 35867 ft | 428 kts | 247° |
| 2026-04-20 16:17 | 46.54513 | 11.54910 | 35853 ft | 429 kts | 246° |
| 2026-04-20 16:17 | 46.51770 | 11.47213 | 35859 ft | 429 kts | 247° |
| 2026-04-20 16:18 | 46.49027 | 11.39534 | 35859 ft | 428 kts | 247° |
| 2026-04-20 16:18 | 46.46278 | 11.31861 | 35848 ft | 429 kts | 247° |
| 2026-04-20 16:19 | 46.43600 | 11.24130 | 35846 ft | 428 kts | 248° |
| 2026-04-20 16:19 | 46.40976 | 11.16432 | 36007 ft | 426 kts | 248° |
| 2026-04-20 16:20 | 46.38329 | 11.08720 | 35979 ft | 427 kts | 248° |
| 2026-04-20 16:20 | 46.35673 | 11.01026 | 35969 ft | 427 kts | 248° |
| 2026-04-20 16:21 | 46.33015 | 10.93356 | 35981 ft | 427 kts | 248° |
| 2026-04-20 16:21 | 46.30343 | 10.85664 | 35969 ft | 429 kts | 248° |
| 2026-04-20 16:22 | 46.27657 | 10.77955 | 35967 ft | 429 kts | 247° |
| 2026-04-20 16:22 | 46.24970 | 10.70283 | 35924 ft | 426 kts | 248° |
| 2026-04-20 16:23 | 46.23642 | 10.66496 | 35608 ft | 418 kts | 248° |
| 2026-04-20 16:23 | 46.22336 | 10.62769 | 35081 ft | 414 kts | 248° |
| 2026-04-20 16:23 | 46.21045 | 10.59086 | 34268 ft | 410 kts | 248° |
| 2026-04-20 16:23 | 46.19749 | 10.55382 | 33053 ft | 413 kts | 248° |
| 2026-04-20 16:24 | 46.18471 | 10.51735 | 32416 ft | 409 kts | 248° |
| 2026-04-20 16:24 | 46.17178 | 10.48057 | 31805 ft | 415 kts | 248° |
| 2026-04-20 16:24 | 46.15844 | 10.44266 | 31334 ft | 426 kts | 247° |
| 2026-04-20 16:24 | 46.14505 | 10.40469 | 30982 ft | 430 kts | 247° |
| 2026-04-20 16:25 | 46.13122 | 10.36562 | 30482 ft | 433 kts | 247° |
| 2026-04-20 16:25 | 46.11774 | 10.32756 | 30016 ft | 433 kts | 247° |
| 2026-04-20 16:25 | 46.10402 | 10.28887 | 29448 ft | 434 kts | 247° |
| 2026-04-20 16:25 | 46.09025 | 10.25001 | 28848 ft | 435 kts | 247° |
| 2026-04-20 16:26 | 46.07652 | 10.21132 | 28320 ft | 434 kts | 247° |
| 2026-04-20 16:26 | 46.06273 | 10.17247 | 27720 ft | 438 kts | 247° |
| 2026-04-20 16:26 | 46.04877 | 10.13322 | 27204 ft | 443 kts | 246° |
| 2026-04-20 16:26 | 46.03474 | 10.09344 | 26590 ft | 445 kts | 247° |
| 2026-04-20 16:27 | 46.02115 | 10.05339 | 25962 ft | 445 kts | 248° |
| 2026-04-20 16:27 | 46.00778 | 10.01335 | 25404 ft | 445 kts | 248° |
| 2026-04-20 16:27 | 45.99441 | 9.97317 | 24828 ft | 446 kts | 248° |
| 2026-04-20 16:27 | 45.98097 | 9.93291 | 24279 ft | 446 kts | 248° |
| 2026-04-20 16:28 | 45.96766 | 9.89321 | 23726 ft | 441 kts | 248° |
| 2026-04-20 16:28 | 45.95432 | 9.85365 | 23094 ft | 431 kts | 247° |
| 2026-04-20 16:28 | 45.94135 | 9.81536 | 22512 ft | 423 kts | 247° |
| 2026-04-20 16:28 | 45.92855 | 9.77758 | 21961 ft | 420 kts | 248° |
| 2026-04-20 16:29 | 45.91581 | 9.74001 | 21468 ft | 418 kts | 247° |
| 2026-04-20 16:29 | 45.90309 | 9.70251 | 20894 ft | 418 kts | 247° |
| 2026-04-20 16:29 | 45.89035 | 9.66501 | 20379 ft | 416 kts | 247° |
| 2026-04-20 16:29 | 45.87767 | 9.62773 | 19831 ft | 415 kts | 247° |
| 2026-04-20 16:30 | 45.86503 | 9.59068 | 19316 ft | 413 kts | 247° |
| 2026-04-20 16:30 | 45.85241 | 9.55376 | 18737 ft | 409 kts | 248° |
| 2026-04-20 16:30 | 45.83996 | 9.51740 | 18187 ft | 404 kts | 247° |
| 2026-04-20 16:30 | 45.82760 | 9.48150 | 17583 ft | 400 kts | 247° |
| 2026-04-20 16:31 | 45.81530 | 9.44575 | 17045 ft | 398 kts | 247° |
| 2026-04-20 16:31 | 45.80312 | 9.41041 | 16487 ft | 392 kts | 247° |
| 2026-04-20 16:31 | 45.79116 | 9.37572 | 16048 ft | 388 kts | 247° |
| 2026-04-20 16:31 | 45.77914 | 9.34084 | 15593 ft | 393 kts | 247° |
| 2026-04-20 16:32 | 45.76702 | 9.30571 | 15099 ft | 393 kts | 247° |
| 2026-04-20 16:32 | 45.75495 | 9.27085 | 14570 ft | 389 kts | 246° |
| 2026-04-20 16:32 | 45.74847 | 9.25216 | 14255 ft | 387 kts | 246° |
| 2026-04-20 16:32 | 45.73789 | 9.22167 | 13692 ft | 385 kts | 246° |
| 2026-04-20 16:33 | 45.72603 | 9.18746 | 13025 ft | 381 kts | 246° |
| 2026-04-20 16:33 | 45.71430 | 9.15367 | 12501 ft | 377 kts | 246° |
| 2026-04-20 16:33 | 45.70267 | 9.12023 | 11997 ft | 374 kts | 246° |
| 2026-04-20 16:33 | 45.69109 | 9.08695 | 11517 ft | 378 kts | 246° |
| 2026-04-20 16:34 | 45.67925 | 9.05295 | 11022 ft | 381 kts | 245° |
| 2026-04-20 16:34 | 45.66747 | 9.01919 | 10527 ft | 378 kts | 245° |
| 2026-04-20 16:34 | 45.65578 | 8.98580 | 10035 ft | 375 kts | 245° |
| 2026-04-20 16:34 | 45.64415 | 8.95265 | 9524 ft | 369 kts | 245° |
| 2026-04-20 16:35 | 45.63041 | 8.92284 | 9123 ft | 351 kts | 226° |
| 2026-04-20 16:35 | 45.61130 | 8.90337 | 9011 ft | 330 kts | 207° |
| 2026-04-20 16:35 | 45.59001 | 8.89308 | 8636 ft | 319 kts | 192° |
| 2026-04-20 16:35 | 45.56838 | 8.89066 | 8274 ft | 309 kts | 176° |
| 2026-04-20 16:36 | 45.54746 | 8.89491 | 7941 ft | 298 kts | 170° |
| 2026-04-20 16:36 | 45.52741 | 8.90068 | 7608 ft | 289 kts | 169° |
| 2026-04-20 16:36 | 45.50800 | 8.90632 | 7286 ft | 281 kts | 169° |
| 2026-04-20 16:36 | 45.48911 | 8.91177 | 6939 ft | 275 kts | 169° |
| 2026-04-20 16:37 | 45.47056 | 8.91694 | 6618 ft | 268 kts | 170° |
| 2026-04-20 16:37 | 45.45245 | 8.92191 | 6308 ft | 262 kts | 170° |
| 2026-04-20 16:37 | 45.43477 | 8.92673 | 6044 ft | 254 kts | 170° |
| 2026-04-20 16:37 | 45.41779 | 8.93116 | 5888 ft | 243 kts | 175° |
| 2026-04-20 16:38 | 45.40172 | 8.92791 | 5768 ft | 236 kts | 206° |
| 2026-04-20 16:38 | 45.38910 | 8.91401 | 5514 ft | 231 kts | 233° |
| 2026-04-20 16:38 | 45.38212 | 8.89431 | 5385 ft | 219 kts | 254° |
| 2026-04-20 16:38 | 45.37886 | 8.87346 | 5303 ft | 208 kts | 259° |
| 2026-04-20 16:39 | 45.37625 | 8.85375 | 5198 ft | 197 kts | 259° |
| 2026-04-20 16:39 | 45.37384 | 8.83547 | 5129 ft | 184 kts | 260° |
| 2026-04-20 16:39 | 45.37565 | 8.81853 | 5022 ft | 174 kts | 306° |
| 2026-04-20 16:39 | 45.38691 | 8.80881 | 5414 ft | 206 kts | 338° |
| 2026-04-20 16:40 | 45.40161 | 8.80135 | 4918 ft | 237 kts | 339° |
| 2026-04-20 16:40 | 45.41726 | 8.79398 | 4554 ft | 235 kts | 342° |
| 2026-04-20 16:40 | 45.43274 | 8.78835 | 4235 ft | 224 kts | 347° |
| 2026-04-20 16:40 | 45.44760 | 8.78404 | 3944 ft | 213 kts | 348° |
| 2026-04-20 16:41 | 45.46192 | 8.78009 | 3676 ft | 208 kts | 348° |
| 2026-04-20 16:41 | 45.47599 | 8.77620 | 3416 ft | 203 kts | 348° |
| 2026-04-20 16:41 | 45.48964 | 8.77244 | 3146 ft | 198 kts | 348° |
| 2026-04-20 16:41 | 45.50299 | 8.76874 | 2878 ft | 193 kts | 348° |
| 2026-04-20 16:42 | 45.51599 | 8.76513 | 2632 ft | 188 kts | 348° |
| 2026-04-20 16:42 | 45.52868 | 8.76162 | 2388 ft | 184 kts | 348° |
| 2026-04-20 16:42 | 45.54101 | 8.75821 | 2155 ft | 176 kts | 348° |
| 2026-04-20 16:42 | 45.55276 | 8.75495 | 1926 ft | 166 kts | 348° |
| 2026-04-20 16:43 | 45.56358 | 8.75194 | 1696 ft | 154 kts | 348° |
| 2026-04-20 16:43 | 45.57353 | 8.74917 | 1524 ft | 139 kts | 347° |
| 2026-04-20 16:43 | 45.58322 | 8.74634 | 1303 ft | 149 kts | 348° |
| 2026-04-20 16:43 | 45.59334 | 8.74364 | 1165 ft | 148 kts | 347° |
| 2026-04-20 16:44 | 45.60356 | 8.74084 | 999 ft | 150 kts | 347° |
| 2026-04-20 16:44 | 45.61382 | 8.73824 | 811 ft | 152 kts | 353° |
| 2026-04-20 16:44 | 45.61819 | 8.73148 | 747 ft | 149 kts | 139° |